createdAt,value
2018-09-06T00:02:12.906Z,82.14
2018-09-06T00:05:17.790Z,82.64
2018-09-06T00:08:23.171Z,83.10
2018-09-06T00:11:28.101Z,82.76
2018-09-06T00:14:33.166Z,82.80
2018-09-06T00:17:38.061Z,83.02
2018-09-06T00:20:42.988Z,83.70
2018-09-06T00:23:47.871Z,84.31
2018-09-06T00:26:52.794Z,83.86
2018-09-06T00:29:57.701Z,83.63
2018-09-06T00:33:02.554Z,83.84
2018-09-06T00:36:07.491Z,83.82
2018-09-06T00:39:12.340Z,83.63
2018-09-06T00:42:17.286Z,84.15
2018-09-06T00:45:22.391Z,84.69
2018-09-06T00:48:27.293Z,85.05
2018-09-06T00:51:32.326Z,85.11
2018-09-06T00:54:37.331Z,85.07
2018-09-06T00:57:42.355Z,84.90
2018-09-06T01:00:47.257Z,84.31
2018-09-06T01:03:52.287Z,84.40
2018-09-06T01:06:57.210Z,84.03
2018-09-06T01:10:02.387Z,84.77
2018-09-06T01:13:07.357Z,84.90
2018-09-06T01:16:12.193Z,84.97
2018-09-06T01:19:17.149Z,86.05
2018-09-06T01:22:22.092Z,85.92
2018-09-06T01:25:31.023Z,85.71
2018-09-06T01:28:35.905Z,85.99
2018-09-06T01:31:40.740Z,85.50
2018-09-06T01:34:45.652Z,86.33
2018-09-06T01:37:50.647Z,85.38
2018-09-06T01:40:55.524Z,85.23
2018-09-06T01:44:00.409Z,85.78
2018-09-06T01:47:05.295Z,85.80
2018-09-06T01:50:10.284Z,86.51
2018-09-06T01:53:15.152Z,87.03
2018-09-06T01:56:20.052Z,86.55
2018-09-06T01:59:24.956Z,87.70
2018-09-06T02:02:29.787Z,86.71
2018-09-06T02:05:36.765Z,87.65
2018-09-06T02:08:42.256Z,86.62
2018-09-06T02:11:47.060Z,87.02
2018-09-06T02:14:51.955Z,87.10
2018-09-06T02:17:56.715Z,87.88
2018-09-06T02:21:01.885Z,87.10
2018-09-06T02:24:06.855Z,88.35
2018-09-06T02:27:11.853Z,87.69
2018-09-06T02:30:16.862Z,88.18
2018-09-06T02:33:21.765Z,88.19
2018-09-06T02:36:26.682Z,88.42
2018-09-06T02:39:31.557Z,89.11
2018-09-06T02:42:36.454Z,89.59
2018-09-06T02:45:42.530Z,89.35
2018-09-06T02:48:47.449Z,89.30
2018-09-06T02:51:52.371Z,89.05
2018-09-06T02:54:57.320Z,89.72
2018-09-06T02:58:02.277Z,90.00
2018-09-06T03:01:07.315Z,89.60
2018-09-06T03:04:12.222Z,90.40
2018-09-06T03:07:17.051Z,89.62
2018-09-06T03:10:22.657Z,89.67
2018-09-06T03:13:27.479Z,89.79
2018-09-06T03:16:32.412Z,90.14
2018-09-06T03:19:37.201Z,89.49
2018-09-06T03:22:42.040Z,89.48
2018-09-06T03:25:46.949Z,89.31
2018-09-06T03:28:51.932Z,90.00
2018-09-06T03:31:56.909Z,90.43
2018-09-06T03:35:01.774Z,90.45
2018-09-06T03:38:06.610Z,90.73
2018-09-06T03:41:11.540Z,90.46
2018-09-06T03:44:16.412Z,90.11
2018-09-06T03:47:21.232Z,90.86
2018-09-06T03:50:26.149Z,90.74
2018-09-06T03:53:31.014Z,90.87
2018-09-06T03:56:35.855Z,91.23
2018-09-06T03:59:40.737Z,90.85
2018-09-06T04:02:45.676Z,89.55
2018-09-06T04:05:50.624Z,89.39
2018-09-06T04:08:55.507Z,89.79
2018-09-06T04:12:00.419Z,90.24
2018-09-06T04:15:05.513Z,89.99
2018-09-06T04:18:10.422Z,90.33
2018-09-06T04:21:15.227Z,89.13
2018-09-06T04:24:20.151Z,90.28
2018-09-06T04:27:25.020Z,90.65
2018-09-06T04:30:29.871Z,90.29
2018-09-06T04:33:34.800Z,90.52
2018-09-06T04:36:39.703Z,91.31
2018-09-06T04:39:44.602Z,90.80
2018-09-06T04:42:49.441Z,91.02
2018-09-06T04:45:54.290Z,91.51
2018-09-06T04:48:59.060Z,91.36
2018-09-06T04:52:04.039Z,91.18
2018-09-06T04:55:09.035Z,91.56
2018-09-06T04:58:13.813Z,91.28
2018-09-06T05:01:18.655Z,91.52
2018-09-06T05:04:23.567Z,91.09
2018-09-06T05:07:28.392Z,89.86
2018-09-06T05:10:33.294Z,88.78
2018-09-06T05:13:38.179Z,87.38
2018-09-06T05:16:43.055Z,86.91
2018-09-06T05:19:47.937Z,86.69
2018-09-06T05:22:52.711Z,85.19
2018-09-06T05:25:57.632Z,83.99
2018-09-06T05:29:02.556Z,82.93
2018-09-06T05:32:07.611Z,81.45
2018-09-06T05:35:12.483Z,82.04
2018-09-06T05:38:17.414Z,81.30
2018-09-06T05:41:22.373Z,81.71
2018-09-06T05:44:27.264Z,79.50
2018-09-06T05:47:32.191Z,79.60
2018-09-06T05:50:37.000Z,80.13
2018-09-06T05:53:41.871Z,80.06
2018-09-06T05:56:46.798Z,79.34
2018-09-06T05:59:51.698Z,78.52
2018-09-06T06:02:58.453Z,77.78
2018-09-06T06:06:03.610Z,78.53
2018-09-06T06:09:09.875Z,77.54
2018-09-06T06:12:14.768Z,77.83
2018-09-06T06:15:19.676Z,76.99
2018-09-06T06:18:24.545Z,75.43
2018-09-06T06:21:29.394Z,75.05
2018-09-06T06:24:34.280Z,75.66
2018-09-06T06:27:39.095Z,75.33
2018-09-06T06:30:43.986Z,72.57
2018-09-06T06:33:48.781Z,72.31
2018-09-06T06:36:53.665Z,73.12
2018-09-06T06:39:58.567Z,71.32
2018-09-06T06:43:03.374Z,71.95
2018-09-06T06:46:08.224Z,71.10
2018-09-06T06:49:13.040Z,70.49
2018-09-06T06:52:17.984Z,70.28
2018-09-06T06:55:22.896Z,71.33
2018-09-06T06:58:27.787Z,70.19
2018-09-06T07:01:32.670Z,70.33
2018-09-06T07:04:37.529Z,70.76
2018-09-06T07:07:42.448Z,68.43
2018-09-06T07:10:47.259Z,66.67
2018-09-06T07:13:52.151Z,68.42
2018-09-06T07:16:57.108Z,67.34
2018-09-06T07:20:02.069Z,68.08
2018-09-06T07:23:06.997Z,66.67
2018-09-06T07:26:11.900Z,65.89
2018-09-06T07:29:16.734Z,63.76
2018-09-06T07:32:21.723Z,61.42
2018-09-06T07:35:27.556Z,62.89
2018-09-06T07:38:32.516Z,63.51
2018-09-06T07:41:37.806Z,64.78
2018-09-06T07:44:42.695Z,62.30
2018-09-06T07:47:47.581Z,60.60
2018-09-06T07:50:52.402Z,60.68
2018-09-06T07:53:57.773Z,59.57
2018-09-06T07:57:02.798Z,61.01
2018-09-06T08:00:08.092Z,58.78
2018-09-06T08:03:13.501Z,57.64
2018-09-06T08:06:18.418Z,57.91
2018-09-06T08:09:23.283Z,57.41
2018-09-06T08:12:28.137Z,55.75
2018-09-06T08:15:33.018Z,54.70
2018-09-06T08:18:37.944Z,56.12
2018-09-06T08:21:42.862Z,54.47
2018-09-06T08:24:47.876Z,56.21
2018-09-06T08:27:52.793Z,58.56
2018-09-06T08:30:57.789Z,56.12
2018-09-06T08:34:02.628Z,55.16
2018-09-06T08:37:07.535Z,53.79
2018-09-06T08:40:12.376Z,53.70
2018-09-06T08:43:17.253Z,56.78
2018-09-06T08:46:22.138Z,54.82
2018-09-06T08:49:26.972Z,55.30
2018-09-06T08:52:31.917Z,52.57
2018-09-06T08:55:36.910Z,52.78
2018-09-06T08:58:41.846Z,52.92
2018-09-06T09:01:46.721Z,53.59
2018-09-06T09:04:51.804Z,53.57
2018-09-06T09:07:56.893Z,53.65
2018-09-06T09:11:01.859Z,53.77
2018-09-06T09:14:06.772Z,53.23
2018-09-06T09:17:11.745Z,52.32
2018-09-06T09:20:16.750Z,51.46
2018-09-06T09:23:21.664Z,52.34
2018-09-06T09:26:26.693Z,51.88
2018-09-06T09:29:31.572Z,51.64
2018-09-06T09:32:36.557Z,50.40
2018-09-06T09:35:41.778Z,51.08
2018-09-06T09:38:46.685Z,49.92
2018-09-06T09:41:51.650Z,49.78
2018-09-06T09:44:56.561Z,49.11
2018-09-06T09:48:01.474Z,48.03
2018-09-06T09:51:06.505Z,47.71
2018-09-06T09:54:11.505Z,48.35
2018-09-06T09:57:16.448Z,47.61
2018-09-06T10:00:25.333Z,49.20
2018-09-06T10:03:35.263Z,50.43
2018-09-06T10:06:45.402Z,48.97
2018-09-06T10:09:50.335Z,47.43
2018-09-06T10:12:55.338Z,48.34
2018-09-06T10:16:00.260Z,47.80
2018-09-06T10:19:05.224Z,47.29
2018-09-06T10:22:10.164Z,47.46
2018-09-06T10:25:15.107Z,46.90
2018-09-06T10:28:20.132Z,44.00
2018-09-06T10:31:25.129Z,45.40
2018-09-06T10:34:30.018Z,45.63
2018-09-06T10:37:34.940Z,43.37
2018-09-06T10:40:40.129Z,44.58
2018-09-06T10:43:45.189Z,43.81
2018-09-06T10:46:51.133Z,43.63
2018-09-06T10:49:56.051Z,45.85
2018-09-06T10:53:02.206Z,45.38
2018-09-06T10:56:07.174Z,45.55
2018-09-06T10:59:12.301Z,45.04
2018-09-06T11:02:17.467Z,44.03
2018-09-06T11:05:22.409Z,44.03
2018-09-06T11:08:28.276Z,44.41
2018-09-06T11:11:33.192Z,42.76
2018-09-06T11:14:38.035Z,42.69
2018-09-06T11:17:42.956Z,44.18
2018-09-06T11:20:47.907Z,44.41
2018-09-06T11:23:52.773Z,43.21
2018-09-06T11:26:58.607Z,41.32
2018-09-06T11:30:03.723Z,38.88
2018-09-06T11:33:08.796Z,37.14
2018-09-06T11:36:14.045Z,36.79
2018-09-06T11:39:19.109Z,36.37
2018-09-06T11:42:24.049Z,34.95
2018-09-06T11:45:28.870Z,34.48
2018-09-06T11:48:33.728Z,33.61
2018-09-06T11:51:38.778Z,34.13
2018-09-06T11:54:43.789Z,36.04
2018-09-06T11:57:48.783Z,36.39
2018-09-06T12:00:53.725Z,35.78
2018-09-06T12:03:58.837Z,36.77
2018-09-06T12:07:03.823Z,36.49
2018-09-06T12:10:08.825Z,37.49
2018-09-06T12:13:13.822Z,36.94
2018-09-06T12:16:18.746Z,39.18
2018-09-06T12:19:23.758Z,44.02
2018-09-06T12:22:29.021Z,45.44
2018-09-06T12:25:33.924Z,45.16
2018-09-06T12:28:38.898Z,46.79
2018-09-06T12:31:43.888Z,45.65
2018-09-06T12:34:48.933Z,47.93
2018-09-06T12:37:53.902Z,48.78
2018-09-06T12:40:58.868Z,50.55
2018-09-06T12:44:04.021Z,51.30
2018-09-06T12:47:09.120Z,50.14
2018-09-06T12:50:14.112Z,48.37
2018-09-06T12:53:19.061Z,48.57
2018-09-06T12:56:23.918Z,49.89
2018-09-06T12:59:28.902Z,48.43
2018-09-06T13:02:33.986Z,45.74
2018-09-06T13:05:38.903Z,47.21
2018-09-06T13:08:44.250Z,46.06
2018-09-06T13:11:49.183Z,51.27
2018-09-06T13:14:54.153Z,51.90
2018-09-06T13:17:59.085Z,55.14
2018-09-06T13:21:04.272Z,54.82
2018-09-06T13:24:09.134Z,55.86
2018-09-06T13:27:14.186Z,56.07
2018-09-06T13:30:22.457Z,54.11
2018-09-06T13:33:27.591Z,51.26
2018-09-06T13:36:32.599Z,52.64
2018-09-06T13:39:37.577Z,52.46
2018-09-06T13:42:48.522Z,50.96
2018-09-06T13:45:53.470Z,50.70
2018-09-06T13:48:58.546Z,50.82
2018-09-06T13:52:03.381Z,50.13
2018-09-06T13:55:08.334Z,49.16
2018-09-06T13:58:13.342Z,48.31
2018-09-06T14:01:18.270Z,46.61
2018-09-06T14:04:23.179Z,47.47
2018-09-06T14:07:28.171Z,46.82
2018-09-06T14:10:32.962Z,45.84
2018-09-06T14:13:37.994Z,48.17
2018-09-06T14:16:42.955Z,46.46
2018-09-06T14:19:47.885Z,45.72
2018-09-06T14:22:52.804Z,45.75
2018-09-06T14:25:57.900Z,48.30
2018-09-06T14:29:02.826Z,49.68
2018-09-06T14:32:07.773Z,49.87
2018-09-06T14:35:12.735Z,48.40
2018-09-06T14:38:17.594Z,47.57
2018-09-06T14:41:22.521Z,50.02
2018-09-06T14:44:27.474Z,49.47
2018-09-06T14:47:32.434Z,50.04
2018-09-06T14:50:37.340Z,49.97
2018-09-06T14:53:42.273Z,49.84
2018-09-06T14:56:47.178Z,50.55
2018-09-06T14:59:52.088Z,49.20
2018-09-06T15:02:57.148Z,49.48
2018-09-06T15:06:02.031Z,49.27
2018-09-06T15:09:09.084Z,49.44
2018-09-06T15:12:14.047Z,49.27
2018-09-06T15:15:18.996Z,48.04
2018-09-06T15:18:24.090Z,48.36
2018-09-06T15:21:29.796Z,48.74
2018-09-06T15:24:34.741Z,46.99
2018-09-06T15:27:39.848Z,45.81
2018-09-06T15:30:44.708Z,47.01
2018-09-06T15:33:49.598Z,48.47
2018-09-06T15:36:54.567Z,48.01
2018-09-06T15:39:59.466Z,49.26
2018-09-06T15:43:04.403Z,51.13
2018-09-06T15:46:09.420Z,51.63
2018-09-06T15:49:14.415Z,51.89
2018-09-06T15:52:19.356Z,52.22
2018-09-06T15:55:24.647Z,50.38
2018-09-06T15:58:29.515Z,50.57
2018-09-06T16:01:34.569Z,51.67
2018-09-06T16:04:39.613Z,51.82
2018-09-06T16:07:44.639Z,53.26
2018-09-06T16:10:49.572Z,52.66
2018-09-06T16:13:54.646Z,51.94
2018-09-06T16:16:59.500Z,52.70
2018-09-06T16:20:04.445Z,54.76
2018-09-06T16:23:09.319Z,57.77
2018-09-06T16:26:14.214Z,58.50
2018-09-06T16:29:19.137Z,59.89
2018-09-06T16:32:24.030Z,60.38
2018-09-06T16:35:28.930Z,60.63
2018-09-06T16:38:33.891Z,60.78
2018-09-06T16:41:38.897Z,61.06
2018-09-06T16:44:43.759Z,61.15
2018-09-06T16:47:48.678Z,59.10
2018-09-06T16:50:53.877Z,61.15
2018-09-06T16:53:58.861Z,63.19
2018-09-06T16:57:03.865Z,64.20
2018-09-06T17:00:08.885Z,64.41
2018-09-06T17:03:13.828Z,65.48
2018-09-06T17:09:22.763Z,67.55
2018-09-06T17:12:27.987Z,71.88
2018-09-06T17:15:32.875Z,72.67
2018-09-06T17:18:38.100Z,73.76
2018-09-06T17:21:43.093Z,77.04
2018-09-06T17:24:48.043Z,78.41
2018-09-06T17:27:52.990Z,76.99
2018-09-06T17:30:58.061Z,79.82
2018-09-06T17:34:03.037Z,79.47
2018-09-06T17:37:08.014Z,78.97
2018-09-06T17:40:12.936Z,78.87
2018-09-06T17:43:17.936Z,78.92
2018-09-06T17:46:22.966Z,80.37
2018-09-06T17:49:28.011Z,81.36
2018-09-06T17:52:33.919Z,83.43
2018-09-06T17:55:38.924Z,83.64
2018-09-06T17:58:43.968Z,83.45
2018-09-06T18:01:49.088Z,85.04
2018-09-06T18:04:54.166Z,84.29
2018-09-06T18:07:59.240Z,84.32
2018-09-06T18:11:04.665Z,84.13
2018-09-06T18:14:09.792Z,84.92
2018-09-06T18:17:14.742Z,85.45
2018-09-06T18:20:19.857Z,85.47
2018-09-06T18:23:25.900Z,85.44
2018-09-06T18:26:30.931Z,84.75
2018-09-06T18:29:36.863Z,85.76
2018-09-06T18:32:42.211Z,86.40
2018-09-06T18:35:47.278Z,86.30
2018-09-06T18:38:53.510Z,85.74
2018-09-06T18:41:59.515Z,86.55
2018-09-06T18:45:04.722Z,85.91
2018-09-06T18:48:09.768Z,85.89
2018-09-06T18:51:14.828Z,87.15
2018-09-06T18:54:19.859Z,87.04
2018-09-06T18:57:25.158Z,87.34
2018-09-06T19:00:30.175Z,87.05
2018-09-06T19:03:35.134Z,87.02
2018-09-06T19:06:40.869Z,87.62
2018-09-06T19:09:45.937Z,87.60
2018-09-06T19:12:50.874Z,86.91
2018-09-06T19:16:01.371Z,86.67
2018-09-06T19:19:07.802Z,86.90
2018-09-06T19:22:12.646Z,86.42
2018-09-06T19:25:17.674Z,84.82
2018-09-06T19:28:22.678Z,83.80
2018-09-06T19:31:27.680Z,85.75
2018-09-06T19:34:32.899Z,84.99
2018-09-06T19:37:38.051Z,84.02
2018-09-06T19:40:43.278Z,83.55
2018-09-06T19:43:48.317Z,84.08
2018-09-06T19:46:53.422Z,83.64
2018-09-06T19:49:58.533Z,83.29
2018-09-06T19:53:03.652Z,82.92
2018-09-06T19:56:08.645Z,83.02
2018-09-06T19:59:13.578Z,83.76
2018-09-06T20:02:18.686Z,84.47
2018-09-06T20:05:23.679Z,86.49
2018-09-06T20:08:28.747Z,86.19
2018-09-06T20:11:33.681Z,86.46
2018-09-06T20:14:38.873Z,87.15
2018-09-06T20:17:43.912Z,86.70
2018-09-06T20:20:49.076Z,86.49
2018-09-06T20:23:54.006Z,86.35
2018-09-06T20:26:58.983Z,84.74
2018-09-06T20:30:04.065Z,84.52
2018-09-06T20:33:09.076Z,84.51
2018-09-06T20:36:14.027Z,84.42
2018-09-06T20:39:18.973Z,84.04
2018-09-06T20:42:24.251Z,84.58
2018-09-06T20:45:29.133Z,84.97
2018-09-06T20:48:34.233Z,83.95
2018-09-06T20:51:39.128Z,84.32
2018-09-06T20:54:46.634Z,85.34
2018-09-06T20:57:52.956Z,84.77
2018-09-06T21:00:58.091Z,85.81
2018-09-06T21:04:03.146Z,86.22
2018-09-06T21:07:08.135Z,85.96
2018-09-06T21:10:13.164Z,85.95
2018-09-06T21:13:18.156Z,86.95
2018-09-06T21:16:23.275Z,86.73
2018-09-06T21:19:28.262Z,85.74
2018-09-06T21:22:33.272Z,86.36
2018-09-06T21:25:38.267Z,85.68
2018-09-06T21:28:43.208Z,85.91
2018-09-06T21:31:48.218Z,86.24
2018-09-06T21:34:53.425Z,86.92
2018-09-06T21:37:58.317Z,87.32
2018-09-06T21:41:03.203Z,88.47
2018-09-06T21:44:08.616Z,88.67
2018-09-06T21:47:14.002Z,89.77
2018-09-06T21:50:18.932Z,90.19
2018-09-06T21:53:24.024Z,90.11
2018-09-06T21:56:29.182Z,91.30
2018-09-06T21:59:34.324Z,90.30
2018-09-06T22:02:44.158Z,91.23
2018-09-06T22:05:49.316Z,90.74
2018-09-06T22:08:54.358Z,91.42
2018-09-06T22:11:59.266Z,91.70
2018-09-06T22:15:04.381Z,91.56
2018-09-06T22:18:10.150Z,91.43
2018-09-06T22:21:15.363Z,92.01
2018-09-06T22:24:20.327Z,92.24
2018-09-06T22:27:25.307Z,92.00
2018-09-06T22:30:30.231Z,92.10
2018-09-06T22:33:35.375Z,92.00
2018-09-06T22:36:40.287Z,92.91
2018-09-06T22:39:45.258Z,93.37
2018-09-06T22:42:50.241Z,92.81
2018-09-06T22:45:55.858Z,93.15
2018-09-06T22:49:00.876Z,93.32
2018-09-06T22:52:06.276Z,93.25
2018-09-06T22:55:11.305Z,93.33
2018-09-06T22:58:16.331Z,93.58
2018-09-06T23:01:21.193Z,94.20
2018-09-06T23:04:26.191Z,94.33
2018-09-06T23:07:31.086Z,93.63
2018-09-06T23:10:36.275Z,93.07
2018-09-06T23:13:41.292Z,92.98
2018-09-06T23:16:46.237Z,93.04
2018-09-06T23:19:51.529Z,93.32
2018-09-06T23:22:56.425Z,93.71
2018-09-06T23:26:01.396Z,93.21
2018-09-06T23:29:06.393Z,93.03
2018-09-06T23:32:11.465Z,93.25
2018-09-06T23:35:16.405Z,94.06
2018-09-06T23:38:21.356Z,93.77
2018-09-06T23:41:26.383Z,94.42
2018-09-06T23:44:31.372Z,94.12
2018-09-06T23:47:36.201Z,94.75
2018-09-06T23:50:41.122Z,94.60
2018-09-06T23:53:46.012Z,95.08
2018-09-06T23:56:50.903Z,95.19
2018-09-06T23:59:55.833Z,94.40
